Terminal Aerodrome Forecast
Issued by NWS

Home | Current Version | Previous Version | Text Only | Print | Product List | Glossary On
Versions: 1 2 3 4 5 6 7 8 9 10 11 12 13 14 15 16 17 18 19 20 21 22 23 24 25 26
000
FTUS43 KLSX 211407 AAA
TAFUIN
TAF AMD
KUIN 211407Z 2114/2212 36006KT 1/4SM FG VCSH BKN002
     FM211500 31004KT 1SM BR BKN006
     FM211600 32004KT 3SM BR BKN012
     FM211700 31004KT P6SM SCT035
     FM211800 30004KT P6SM SCT200
     FM220300 20004KT P6SM FEW200
     FM220900 VRB03KT 4SM BR FEW200=

USA.gov is the U.S. government's official web portal to all federal, state and local government web resources and services.